الصفحة الرئيسية
METAR-TAF:

METAR-TAF

مطار :

Glendale Municipal Airport

غلانديل, أريزونا, الولايات المتحدة

دائرة عرض: 33-31-38N, خط طول: 112-17-43W, ارتفاع: 325 متر

مراقبة الطقس الحالي

تاريخ ووقت الإصدار 4ساعات و 11 دقيقة قبل الساعة 02:50UTC
رياح هادئة
درجة الحرارة 16°درجة مئوية
الرطوبة 59%
ضغط 1018 hPa
الرؤية: 16.1 كم
غيوم مفككة على ارتفاع 17000 قدم
ملبد بالغيوم على ارتفاع 25000 قدم

METAR: KGEU 110250Z 00000KT 10SM BKN170 OVC250 16/08 A3005 RMK LAST

زمن: 00:01 (07:01 UTC)


TAF: مفقودة

أرصاد الطقس والتوقعات من أكثر من 4000 مطار (تقارير الطقس للمطار METAR والتنبؤ بالطقس بالمطارTAF).

المحطات المتاحة هي النقط الصفراء والحمراء على الخريطة.

حرك المؤشر فوق النقطة لمعرفة اسم المحطة.

ثم انقر لمعرفة أرصاد وتوقعات الطقس.

لتغيير الخارطة: اضغط على الأزرار الخضراء مع رمز الصليب الأسود للتكبير. على الزر الأخضر مع شرطة للتصغير، أو على الأسهم الخضراء للخرائط المجاورة.


METAR-TAF: